Time;durP1;ratioP1;P1;durP2;ratioP2;P2;SDS_P1;SDS_P2;PMS_P1;PMS_P2;Temp;Humidity;BMP_temperature;BMP_pressure;BME280_temperature;BME280_humidity;BME280_pressure;Samples;Min_cycle;Max_cycle;Signal;HPM_P1;HPM_P2
2023/07/19 00:00:20;;;;;;;16.65;11.08;;;;;;;27.10;59.16;99714.66;1762888;81;21347;-79
2023/07/19 00:03:26;;;;;;;18.23;12.45;;;;;;;27.11;59.19;99723.91;1762969;81;21367;-79
2023/07/19 00:06:35;;;;;;;24.05;13.45;;;;;;;27.09;59.17;99721.38;1763030;81;22722;-80
2023/07/19 00:09:40;;;;;;;15.80;11.83;;;;;;;27.13;59.13;99728.06;1764216;81;21308;-80
2023/07/19 00:12:47;;;;;;;16.97;12.05;;;;;;;27.33;58.57;99728.94;1763317;81;22335;-80
2023/07/19 00:15:53;;;;;;;23.92;13.05;;;;;;;27.22;58.81;99726.27;1764101;81;21343;-79
2023/07/19 00:19:00;;;;;;;20.37;13.58;;;;;;;27.20;59.00;99718.73;1764501;81;21890;-79
2023/07/19 00:22:06;;;;;;;24.77;12.35;;;;;;;27.33;58.89;99714.33;1765803;81;21327;-80
2023/07/19 00:25:12;;;;;;;20.62;13.50;;;;;;;27.31;59.08;99712.97;1772535;81;21878;-80
2023/07/19 00:28:19;;;;;;;22.22;12.37;;;;;;;27.17;59.79;99711.47;1772643;81;21307;-80
2023/07/19 00:31:25;;;;;;;12.45;11.08;;;;;;;27.05;60.60;99716.06;1771255;81;22616;-79
2023/07/19 00:34:32;;;;;;;24.07;13.45;;;;;;;27.21;60.04;99712.54;1772742;81;21893;-80
2023/07/19 00:37:38;;;;;;;17.02;12.45;;;;;;;27.11;60.43;99693.86;1772728;81;21930;-80
2023/07/19 00:40:43;;;;;;;22.58;13.95;;;;;;;26.89;61.04;99689.34;1771105;81;21331;-80
2023/07/19 00:43:49;;;;;;;26.33;14.68;;;;;;;27.05;60.71;99695.59;1771190;81;21303;-80
2023/07/19 00:46:55;;;;;;;18.40;13.25;;;;;;;27.04;60.60;99696.16;1772029;81;22645;-80
2023/07/19 00:50:01;;;;;;;26.02;14.18;;;;;;;27.07;60.53;99694.16;1772431;81;21307;-79
2023/07/19 00:53:07;;;;;;;21.87;15.35;;;;;;;27.15;60.23;99694.94;1772731;81;21323;-80
2023/07/19 00:56:08;;;;;;;17.20;13.03;;;;;;;27.06;60.35;99700.92;1771251;81;21315;-80
2023/07/19 00:59:01;;;;;;;19.77;13.83;;;;;;;27.00;60.43;99709.95;1772598;81;21339;-80
2023/07/19 01:02:07;;;;;;;22.20;13.15;;;;;;;27.10;59.85;99716.05;1771902;81;21336;-80
2023/07/19 01:05:14;;;;;;;16.73;11.20;;;;;;;27.05;59.66;99714.66;1772585;81;21295;-80
2023/07/19 01:08:20;;;;;;;19.65;11.28;;;;;;;27.11;58.94;99712.11;1771276;81;21272;-80
2023/07/19 01:11:26;;;;;;;13.90;10.08;;;;;;;27.19;57.80;99709.19;1771633;81;21303;-80
2023/07/19 01:14:31;;;;;;;20.60;10.10;;;;;;;27.07;57.41;99705.39;1772682;81;21314;-79
2023/07/19 01:17:39;;;;;;;14.47;10.30;;;;;;;27.11;57.01;99707.06;1772130;81;21973;-80
2023/07/19 01:20:45;;;;;;;15.50;11.40;;;;;;;26.99;57.29;99704.07;1772257;81;22257;-80
2023/07/19 01:23:51;;;;;;;13.93;11.60;;;;;;;27.01;57.16;99702.39;1765804;81;21344;-80
2023/07/19 01:26:58;;;;;;;23.18;11.73;;;;;;;26.95;57.26;99686.16;1763174;81;21339;-81
2023/07/19 01:30:07;;;;;;;15.40;11.45;;;;;;;26.89;57.36;99686.53;1764053;81;21304;-80
2023/07/19 01:33:13;;;;;;;24.35;11.57;;;;;;;26.80;57.63;99678.51;1763191;81;21352;-80
2023/07/19 01:36:21;;;;;;;17.42;11.75;;;;;;;26.79;57.52;99681.05;1763685;81;21300;-80
2023/07/19 01:39:27;;;;;;;24.23;10.72;;;;;;;26.76;57.48;99684.70;1764474;81;21316;-81
2023/07/19 01:42:33;;;;;;;22.55;10.85;;;;;;;26.66;57.65;99684.00;1764224;81;21352;-80
2023/07/19 01:45:40;;;;;;;17.02;10.20;;;;;;;26.37;58.30;99681.20;1764556;81;21839;-80
2023/07/19 01:48:46;;;;;;;16.00;10.48;;;;;;;26.29;58.42;99682.67;1764489;81;21300;-80
2023/07/19 01:51:52;;;;;;;12.47;9.70;;;;;;;26.22;58.34;99688.63;1763676;81;21347;-80
2023/07/19 01:54:58;;;;;;;20.05;10.40;;;;;;;26.07;58.64;99693.55;1764489;81;21260;-80
2023/07/19 01:58:05;;;;;;;11.70;9.80;;;;;;;26.19;58.19;99699.59;1764354;81;21312;-80
2023/07/19 02:01:12;;;;;;;14.10;9.23;;;;;;;26.51;57.00;99706.04;1764090;81;21369;-80
2023/07/19 02:04:19;;;;;;;13.93;9.50;;;;;;;26.39;57.17;99713.97;1764321;81;21320;-80
2023/07/19 02:07:27;;;;;;;19.42;9.58;;;;;;;26.37;56.87;99723.25;1764402;81;21296;-80
2023/07/19 02:10:34;;;;;;;22.02;10.80;;;;;;;26.37;56.85;99727.45;1764553;81;21962;-80
2023/07/19 02:13:40;;;;;;;17.07;9.73;;;;;;;26.40;56.53;99741.73;1764393;81;21355;-80
2023/07/19 02:16:47;;;;;;;22.58;9.55;;;;;;;26.49;56.16;99739.16;1764420;81;21902;-80
2023/07/19 02:19:54;;;;;;;26.00;10.45;;;;;;;26.06;57.17;99738.92;1764468;81;21315;-80
2023/07/19 02:23:01;;;;;;;23.83;9.78;;;;;;;25.92;57.58;99738.75;1762930;81;21348;-80
2023/07/19 02:26:07;;;;;;;19.05;9.55;;;;;;;25.71;58.48;99726.83;1772571;81;21859;-80
2023/07/19 02:29:13;;;;;;;18.90;9.40;;;;;;;26.20;57.41;99728.71;1772477;81;21902;-80
2023/07/19 02:32:20;;;;;;;14.93;9.58;;;;;;;26.52;56.45;99737.14;1771965;81;21889;-80
2023/07/19 02:35:28;;;;;;;18.70;9.60;;;;;;;26.83;55.77;99736.84;1771411;81;21898;-79
2023/07/19 02:38:34;;;;;;;11.18;8.53;;;;;;;26.94;54.96;99741.19;1772475;81;21875;-80
2023/07/19 02:41:34;;;;;;;18.65;9.28;;;;;;;27.00;54.90;99745.59;1772410;81;21343;-80
2023/07/19 02:44:26;;;;;;;13.70;8.93;;;;;;;27.47;53.78;99749.52;1772510;81;21288;-80
2023/07/19 02:47:13;;;;;;;13.18;8.10;;;;;;;27.85;52.45;99753.78;1772514;81;21299;-80
2023/07/19 02:50:19;;;;;;;15.80;8.78;;;;;;;28.03;51.36;99757.98;1772786;81;21830;-80
2023/07/19 02:53:25;;;;;;;15.43;9.25;;;;;;;28.13;50.59;99759.78;1771294;81;21307;-80
2023/07/19 02:56:18;;;;;;;17.27;8.60;;;;;;;28.17;50.19;99753.82;1772632;81;21296;-80
2023/07/19 02:59:23;;;;;;;15.93;9.70;;;;;;;28.39;49.36;99750.97;1772473;81;21296;-78
2023/07/19 03:02:29;;;;;;;11.90;8.20;;;;;;;28.47;48.67;99752.52;1772055;81;21315;-80
2023/07/19 03:05:42;;;;;;;14.47;9.60;;;;;;;28.30;48.64;99759.81;1772907;81;21200;-80
2023/07/19 03:08:48;;;;;;;15.25;9.65;;;;;;;28.21;48.48;99764.72;1772679;81;21929;-80
2023/07/19 03:11:56;;;;;;;17.15;10.10;;;;;;;27.99;48.84;99765.92;1772406;81;21311;-80
2023/07/19 03:15:01;;;;;;;24.00;8.68;;;;;;;28.16;48.60;99767.63;1772576;81;21311;-80
2023/07/19 03:18:10;;;;;;;14.78;9.30;;;;;;;28.28;48.07;99769.40;1772424;81;21304;-80
2023/07/19 03:21:20;;;;;;;21.60;11.27;;;;;;;28.10;48.16;99769.43;1772740;81;21232;-80
2023/07/19 03:24:27;;;;;;;14.55;10.80;;;;;;;28.22;47.67;99766.96;1771174;81;21319;-80
2023/07/19 03:27:33;;;;;;;22.45;11.33;;;;;;;28.12;47.80;99765.16;1772487;81;21303;-80
2023/07/19 03:30:40;;;;;;;14.55;10.40;;;;;;;27.96;48.11;99763.74;1772430;81;21307;-80
2023/07/19 03:33:46;;;;;;;19.55;10.45;;;;;;;27.99;47.84;99761.70;1771314;81;21331;-80
2023/07/19 03:36:53;;;;;;;17.67;9.90;;;;;;;28.18;47.29;99762.55;1772464;81;21862;-80
2023/07/19 03:39:59;;;;;;;16.85;9.65;;;;;;;28.22;46.67;99763.58;1772485;81;21173;-80
2023/07/19 03:43:06;;;;;;;20.12;9.83;;;;;;;28.38;46.03;99758.58;1772011;81;21354;-80
2023/07/19 03:46:14;;;;;;;24.87;10.95;;;;;;;28.45;45.51;99746.92;1772559;81;21316;-80
2023/07/19 03:49:21;;;;;;;17.25;9.83;;;;;;;28.51;45.00;99747.08;1772026;81;21918;-80
2023/07/19 03:52:29;;;;;;;20.00;9.48;;;;;;;28.61;44.57;99749.73;1772596;81;21323;-80
2023/07/19 03:55:35;;;;;;;16.23;8.50;;;;;;;28.69;44.09;99753.21;1772510;81;21304;-80
2023/07/19 03:58:43;;;;;;;11.68;8.53;;;;;;;28.80;43.48;99761.48;1772740;81;21304;-80
2023/07/19 04:01:49;;;;;;;15.38;8.20;;;;;;;28.91;42.48;99755.91;1772588;81;21217;-80
2023/07/19 04:04:57;;;;;;;15.53;8.25;;;;;;;28.75;42.36;99756.22;1771723;81;21347;-80
2023/07/19 04:08:03;;;;;;;12.93;7.97;;;;;;;28.64;42.29;99767.95;1772361;81;21308;-80
2023/07/19 04:11:11;;;;;;;13.25;8.78;;;;;;;28.56;42.28;99768.66;1772589;81;21846;-80
2023/07/19 04:14:18;;;;;;;13.70;9.33;;;;;;;28.34;42.90;99777.75;1771428;81;21296;-80
2023/07/19 04:17:24;;;;;;;18.73;10.75;;;;;;;28.37;43.21;99783.63;1772424;81;21296;-80
2023/07/19 04:20:30;;;;;;;15.43;11.28;;;;;;;28.35;43.87;99778.03;1772582;81;21653;-80
2023/07/19 04:23:37;;;;;;;18.15;11.83;;;;;;;28.42;44.53;99786.36;1771093;81;21696;-80
2023/07/19 04:26:43;;;;;;;17.37;10.90;;;;;;;28.48;44.40;99793.55;1766879;81;21364;-80
2023/07/19 04:29:50;;;;;;;18.48;10.70;;;;;;;28.48;43.48;99791.31;1764370;81;21343;-80
2023/07/19 04:32:56;;;;;;;14.87;11.43;;;;;;;28.58;43.67;99781.28;1764521;81;21296;-80
2023/07/19 04:36:03;;;;;;;11.33;9.13;;;;;;;28.63;43.37;99791.03;1764470;81;21327;-80
2023/07/19 04:39:11;;;;;;;14.30;10.10;;;;;;;28.62;43.26;99799.22;1728115;83;21253;-80
2023/07/19 04:42:17;;;;;;;20.30;9.58;;;;;;;28.68;43.10;99800.80;1764400;81;21347;-80
2023/07/19 04:45:24;;;;;;;15.10;8.65;;;;;;;28.87;42.57;99791.45;1764471;81;21232;-80
2023/07/19 04:48:30;;;;;;;16.82;9.38;;;;;;;28.96;41.42;99801.71;1763099;81;21289;-80
2023/07/19 04:51:36;;;;;;;16.00;7.47;;;;;;;29.13;40.60;99796.06;1764360;81;21331;-80
2023/07/19 04:54:41;;;;;;;11.35;5.95;;;;;;;28.98;39.75;99805.06;1762882;81;21882;-80
2023/07/19 04:57:50;;;;;;;14.05;6.72;;;;;;;29.08;39.82;99808.80;1764475;81;21313;-80
2023/07/19 05:00:56;;;;;;;9.88;6.65;;;;;;;29.36;39.13;99809.10;1764372;81;21315;-80
2023/07/19 05:04:01;;;;;;;12.45;7.10;;;;;;;29.57;38.85;99809.52;1762982;81;21320;-80
2023/07/19 05:07:00;;;;;;;13.45;7.95;;;;;;;29.87;38.06;99811.39;1763010;81;21336;-80
2023/07/19 05:13:06;;;;;;;13.38;7.28;;;;;;;29.82;37.87;99823.62;1732252;82;21289;-79
2023/07/19 05:16:11;;;;;;;16.25;7.42;;;;;;;29.89;37.92;99826.02;1735525;82;21645;-80
2023/07/19 05:19:17;;;;;;;22.40;7.50;;;;;;;29.91;37.63;99837.23;1735231;82;21318;-79
2023/07/19 05:22:23;;;;;;;16.57;7.50;;;;;;;29.93;37.66;99825.66;1735460;82;21876;-80
2023/07/19 05:25:24;;;;;;;17.67;8.43;;;;;;;30.00;37.79;99821.81;1734258;82;21319;-80
2023/07/19 05:28:29;;;;;;;17.17;8.48;;;;;;;30.27;37.28;99821.75;1762013;81;21324;-80
2023/07/19 05:31:35;;;;;;;14.33;7.22;;;;;;;30.37;37.11;99835.36;1767066;81;21300;-80
2023/07/19 05:34:40;;;;;;;15.85;7.22;;;;;;;30.71;36.52;99837.04;1769371;81;21290;-80
2023/07/19 05:37:46;;;;;;;16.37;7.30;;;;;;;30.97;35.93;99836.38;1743133;81;21331;-80
2023/07/19 05:40:52;;;;;;;14.75;6.30;;;;;;;31.12;35.51;99835.95;1749975;81;21877;-80
2023/07/19 05:43:57;;;;;;;12.03;6.33;;;;;;;31.13;35.25;99836.20;1768702;81;21308;-80
2023/07/19 05:47:05;;;;;;;18.50;6.55;;;;;;;31.15;35.06;99828.81;1745552;81;21296;-80
2023/07/19 05:50:12;;;;;;;15.85;7.25;;;;;;;31.21;35.42;99829.77;1765562;81;21304;-80
2023/07/19 05:53:18;;;;;;;10.05;7.17;;;;;;;31.08;35.22;99835.52;1748889;81;21862;-80
2023/07/19 05:56:24;;;;;;;12.33;6.40;;;;;;;31.39;34.80;99831.30;1751000;81;21346;-80
2023/07/19 05:59:29;;;;;;;10.25;6.83;;;;;;;31.60;33.81;99833.76;1745528;81;21918;-80
2023/07/19 06:02:35;;;;;;;12.55;6.20;;;;;;;31.76;33.92;99829.88;1750456;81;21311;-80
2023/07/19 06:05:42;;;;;;;16.02;7.05;;;;;;;31.64;33.38;99833.95;1738224;82;21952;-80
2023/07/19 06:08:49;;;;;;;19.32;6.35;;;;;;;31.43;33.60;99833.70;1733611;82;21288;-80
2023/07/19 06:11:57;;;;;;;13.95;6.00;;;;;;;31.12;33.00;99838.78;1769491;81;21339;-80
2023/07/19 06:15:03;;;;;;;14.63;4.85;;;;;;;31.21;33.08;99834.59;1769851;80;21268;-80
2023/07/19 06:18:11;;;;;;;10.05;5.90;;;;;;;31.26;32.73;99836.69;1768941;81;21359;-80
2023/07/19 06:21:18;;;;;;;7.65;4.90;;;;;;;31.51;32.29;99837.14;1754459;81;21301;-80
2023/07/19 06:24:24;;;;;;;9.05;4.60;;;;;;;31.70;32.09;99841.93;1755689;81;21308;-80
2023/07/19 06:27:31;;;;;;;11.00;5.03;;;;;;;31.90;31.28;99849.02;1768400;81;21331;-80
2023/07/19 06:30:39;;;;;;;13.83;4.58;;;;;;;31.68;31.06;99840.03;1722079;82;21343;-80
2023/07/19 06:33:46;;;;;;;11.03;4.95;;;;;;;31.65;30.89;99842.08;1760886;81;21307;-80
2023/07/19 06:36:52;;;;;;;6.22;3.35;;;;;;;31.45;31.35;99836.46;1756889;81;21342;-82
2023/07/19 06:40:02;;;;;;;6.12;3.52;;;;;;;31.55;29.70;99842.39;1716020;82;21359;-82
2023/07/19 06:43:09;;;;;;;8.73;3.35;;;;;;;31.45;29.47;99839.88;1714243;83;22015;-80
2023/07/19 06:46:15;;;;;;;5.55;2.87;;;;;;;31.37;29.82;99840.66;1714436;83;21390;-80
2023/07/19 06:49:20;;;;;;;6.55;4.10;;;;;;;31.39;29.07;99834.13;1754077;80;21303;-80
2023/07/19 06:52:26;;;;;;;11.22;3.62;;;;;;;31.63;29.27;99830.28;1742877;81;21320;-80
2023/07/19 06:55:31;;;;;;;4.97;3.10;;;;;;;31.95;28.28;99844.61;1735117;81;21351;-80
2023/07/19 06:58:38;;;;;;;8.15;3.20;;;;;;;32.01;27.90;99843.28;1742710;81;21322;-80
2023/07/19 07:01:43;;;;;;;7.05;3.20;;;;;;;32.14;27.44;99845.72;1750602;82;21299;-80
2023/07/19 07:04:50;;;;;;;3.45;2.52;;;;;;;32.28;27.35;99847.80;1732817;81;21319;-80
2023/07/19 07:07:56;;;;;;;10.43;2.55;;;;;;;32.06;27.02;99855.02;1762587;81;21743;-80
2023/07/19 07:11:02;;;;;;;5.60;2.12;;;;;;;31.80;27.15;99854.34;1741812;81;21684;-80
2023/07/19 07:14:08;;;;;;;3.72;2.40;;;;;;;31.62;27.56;99847.00;1745910;81;21348;-80
2023/07/19 07:17:14;;;;;;;5.75;2.55;;;;;;;31.48;27.69;99850.53;1737652;82;21328;-80
2023/07/19 07:20:20;;;;;;;3.60;2.42;;;;;;;31.22;28.93;99844.14;1757040;81;21918;-80
2023/07/19 07:23:26;;;;;;;5.67;2.33;;;;;;;31.25;29.08;99837.85;1745636;81;21299;-80
2023/07/19 07:26:33;;;;;;;4.58;2.40;;;;;;;31.23;28.13;99837.91;1705858;84;21349;-80
2023/07/19 07:29:41;;;;;;;7.75;2.65;;;;;;;31.22;28.27;99839.08;1722967;82;21864;-80
2023/07/19 07:32:49;;;;;;;6.53;2.30;;;;;;;31.32;28.81;99839.39;1734246;82;21330;-80
2023/07/19 07:35:55;;;;;;;5.17;2.22;;;;;;;31.47;28.42;99840.36;1760059;81;21349;-79
2023/07/19 07:39:01;;;;;;;5.45;2.20;;;;;;;31.48;27.62;99842.88;1762815;80;21299;-81
2023/07/19 07:42:09;;;;;;;7.87;1.82;;;;;;;31.47;28.36;99834.13;1726081;81;21907;-82
2023/07/19 07:45:17;;;;;;;3.72;1.98;;;;;;;31.65;26.55;99837.84;1695976;83;21308;-81
2023/07/19 07:48:23;;;;;;;3.10;1.65;;;;;;;31.75;26.89;99843.19;1697189;83;21240;-81
2023/07/19 07:51:31;;;;;;;6.47;1.75;;;;;;;31.64;24.73;99836.19;1732292;81;21335;-81
2023/07/19 07:54:38;;;;;;;7.17;2.00;;;;;;;31.68;24.80;99837.20;1736497;82;21276;-82
2023/07/19 07:57:42;;;;;;;3.67;1.55;;;;;;;31.75;25.49;99837.53;1740669;81;21281;-81
2023/07/19 08:00:49;;;;;;;3.52;1.82;;;;;;;31.81;25.41;99837.66;1715854;82;21339;-80
2023/07/19 08:03:55;;;;;;;6.70;1.70;;;;;;;31.66;24.96;99832.44;1764616;81;21902;-80
2023/07/19 08:07:02;;;;;;;3.83;2.00;;;;;;;31.83;25.22;99832.27;1716977;81;21946;-80
2023/07/19 08:13:17;;;;;;;3.65;1.90;;;;;;;31.97;26.26;99825.30;1731189;81;21311;-80
2023/07/19 08:16:24;;;;;;;8.48;1.70;;;;;;;31.95;25.89;99824.81;1760001;81;21323;-80
2023/07/19 08:19:31;;;;;;;5.58;1.72;;;;;;;32.15;25.81;99826.16;1749641;81;21303;-80
2023/07/19 08:22:38;;;;;;;3.55;1.80;;;;;;;32.11;25.34;99821.50;1749526;81;21304;-80
2023/07/19 08:25:43;;;;;;;4.75;1.42;;;;;;;32.21;25.14;99822.58;1755346;81;21350;-80
2023/07/19 08:28:48;;;;;;;2.05;1.60;;;;;;;32.27;25.79;99829.14;1722028;81;21997;-80
2023/07/19 08:31:54;;;;;;;5.40;1.30;;;;;;;32.37;25.34;99830.00;1722446;81;21880;-80
2023/07/19 08:35:00;;;;;;;4.10;1.62;;;;;;;32.38;25.42;99820.38;1754059;81;21356;-80
2023/07/19 08:38:07;;;;;;;2.92;1.65;;;;;;;32.40;25.48;99819.44;1753142;81;21310;-80
2023/07/19 08:41:12;;;;;;;4.28;1.52;;;;;;;32.50;25.44;99826.17;1756068;81;21330;-80
2023/07/19 08:44:19;;;;;;;3.37;1.47;;;;;;;32.69;25.54;99822.98;1756177;81;21355;-80
2023/07/19 08:47:24;;;;;;;3.12;1.42;;;;;;;32.68;24.53;99823.56;1756622;81;21358;-80
2023/07/19 08:50:31;;;;;;;5.35;1.42;;;;;;;32.64;24.18;99831.66;1752747;80;22291;-80
2023/07/19 08:53:40;;;;;;;2.95;1.62;;;;;;;32.60;24.83;99827.23;1755250;80;21598;-81
2023/07/19 08:56:49;;;;;;;4.05;1.67;;;;;;;32.57;24.56;99823.68;1742453;81;21213;-81
2023/07/19 08:59:56;;;;;;;4.63;1.60;;;;;;;32.51;25.00;99832.94;1740124;81;21299;-82
2023/07/19 09:03:03;;;;;;;3.17;2.00;;;;;;;32.41;24.98;99812.61;1748531;80;21361;-82
2023/07/19 09:06:10;;;;;;;3.87;2.45;;;;;;;32.38;25.46;99806.22;1743802;80;21305;-82
2023/07/19 09:09:18;;;;;;;3.80;2.02;;;;;;;32.47;25.56;99812.13;1752588;80;21343;-82
2023/07/19 09:12:24;;;;;;;6.03;2.67;;;;;;;32.41;26.00;99811.19;1741794;80;21295;-79
2023/07/19 09:15:30;;;;;;;11.60;4.12;;;;;;;32.46;25.68;99805.36;1758828;81;21314;-82
2023/07/19 09:18:37;;;;;;;9.23;2.98;;;;;;;32.52;25.25;99810.53;1759990;80;21604;-81
2023/07/19 09:21:52;;;;;;;8.10;3.20;;;;;;;32.51;25.19;99805.19;1739044;82;21295;-83
2023/07/19 09:25:03;;;;;;;10.65;2.90;;;;;;;32.43;25.41;99789.06;1745753;81;21335;-81
2023/07/19 09:28:17;;;;;;;8.95;3.30;;;;;;;32.39;25.42;99785.24;1742032;82;21331;-81
2023/07/19 09:31:25;;;;;;;11.28;3.67;;;;;;;32.49;25.46;99791.97;1759658;81;21877;-81
2023/07/19 09:34:36;;;;;;;12.90;3.17;;;;;;;32.52;25.74;99790.72;1722723;83;21367;-81
2023/07/19 09:37:41;;;;;;;6.80;2.42;;;;;;;32.54;26.01;99790.38;1738449;82;21361;-81
2023/07/19 09:40:47;;;;;;;5.47;2.35;;;;;;;32.34;23.95;99789.63;1744415;82;21308;-81
2023/07/19 09:43:55;;;;;;;4.80;1.70;;;;;;;32.32;23.80;99797.02;1738446;82;21283;-81
2023/07/19 09:47:03;;;;;;;4.25;2.00;;;;;;;32.39;23.67;99776.75;1745020;82;21642;-81
2023/07/19 09:50:12;;;;;;;9.27;1.83;;;;;;;32.51;23.70;99781.98;1738536;82;21277;-81
2023/07/19 09:53:21;;;;;;;5.17;2.65;;;;;;;32.56;23.93;99783.22;1752497;82;21303;-81
2023/07/19 09:56:28;;;;;;;3.85;2.05;;;;;;;32.59;23.69;99776.04;1749693;82;21324;-81
2023/07/19 09:59:43;;;;;;;5.72;1.50;;;;;;;32.62;23.94;99764.05;1735379;82;21343;-82
2023/07/19 10:02:50;;;;;;;3.70;1.17;;;;;;;32.75;23.85;99765.03;1733957;82;21326;-82
2023/07/19 10:06:06;;;;;;;6.08;1.40;;;;;;;32.70;23.13;99775.95;1723184;82;21379;-82
2023/07/19 10:09:37;;;;;;;8.48;1.50;;;;;;;32.53;23.11;99774.56;1722261;82;21363;-82
2023/07/19 10:12:39;;;;;;;2.72;1.17;;;;;;;32.46;23.50;99774.23;1737664;81;21306;-81
2023/07/19 10:15:45;;;;;;;2.83;1.10;;;;;;;32.59;22.55;99780.87;1740924;81;21308;-81
2023/07/19 10:18:44;;;;;;;2.47;1.10;;;;;;;32.61;22.87;99774.28;1716059;82;21300;-81
2023/07/19 10:21:38;;;;;;;3.75;1.22;;;;;;;32.69;23.03;99777.09;1764218;80;21374;-81
2023/07/19 10:24:24;;;;;;;3.65;1.27;;;;;;;32.67;22.69;99775.20;1718387;81;21300;-81
2023/07/19 10:27:20;;;;;;;5.17;1.60;;;;;;;32.79;23.01;99777.31;1699457;82;21299;-81
2023/07/19 10:30:26;;;;;;;7.33;1.10;;;;;;;32.80;22.83;99775.58;1764821;81;21907;-80
2023/07/19 10:33:35;;;;;;;2.08;0.93;;;;;;;32.71;22.90;99771.94;1747115;81;21310;-81
2023/07/19 10:36:40;;;;;;;4.90;1.02;;;;;;;32.67;22.62;99775.20;1719489;83;21348;-82
2023/07/19 10:39:48;;;;;;;7.45;0.90;;;;;;;32.35;22.65;99778.55;1698503;83;21332;-80
2023/07/19 10:42:54;;;;;;;5.03;1.00;;;;;;;32.23;22.47;99751.78;1710944;84;21326;-81
2023/07/19 10:46:03;;;;;;;5.65;1.30;;;;;;;32.28;22.82;99759.27;1725666;83;21312;-80
2023/07/19 10:49:09;;;;;;;7.00;1.32;;;;;;;32.40;23.58;99749.52;1733140;83;21323;-81
2023/07/19 10:52:17;;;;;;;5.17;1.00;;;;;;;32.54;23.19;99757.23;1731349;82;21339;-81
2023/07/19 10:55:23;;;;;;;2.10;1.02;;;;;;;32.54;22.95;99747.91;1669880;83;21315;-81
2023/07/19 10:58:31;;;;;;;5.42;1.02;;;;;;;32.61;22.67;99738.34;1726994;83;21855;-81
2023/07/19 11:01:36;;;;;;;5.30;1.10;;;;;;;32.67;22.60;99729.90;1713866;83;21300;-80
2023/07/19 11:04:44;;;;;;;6.55;1.10;;;;;;;32.63;23.22;99725.25;1702318;83;21294;-81
2023/07/19 11:07:50;;;;;;;4.87;1.00;;;;;;;32.68;23.51;99725.89;1723465;81;21347;-80
2023/07/19 11:11:00;;;;;;;3.65;1.17;;;;;;;32.79;22.72;99730.04;1727723;81;21315;-81
2023/07/19 11:14:06;;;;;;;7.53;1.98;;;;;;;32.73;22.60;99703.64;1708879;83;21319;-81
2023/07/19 11:17:12;;;;;;;8.85;1.02;;;;;;;32.47;23.21;99720.14;1720826;83;21307;-82
2023/07/19 11:20:17;;;;;;;2.00;0.90;;;;;;;32.49;22.72;99732.53;1723419;83;21316;-82
2023/07/19 11:23:23;;;;;;;4.03;1.20;;;;;;;32.40;22.44;99722.64;1726527;81;21304;-81
2023/07/19 11:26:28;;;;;;;3.02;0.80;;;;;;;32.30;22.69;99719.55;1713149;83;21308;-80
2023/07/19 11:29:40;;;;;;;1.90;0.90;;;;;;;32.52;22.56;99715.71;1704447;84;21347;-81
2023/07/19 11:32:46;;;;;;;3.25;1.00;;;;;;;32.72;22.56;99714.73;1704676;81;22105;-81
2023/07/19 11:35:53;;;;;;;3.40;1.12;;;;;;;32.70;22.20;99724.98;1746152;81;21327;-80
2023/07/19 11:38:59;;;;;;;3.00;1.10;;;;;;;32.67;22.08;99722.82;1751696;79;22561;-80
2023/07/19 11:42:05;;;;;;;4.22;1.00;;;;;;;32.58;22.55;99722.02;1748033;80;21292;-80
2023/07/19 11:45:21;;;;;;;2.55;1.00;;;;;;;32.52;22.56;99727.62;1735600;81;21334;-80
2023/07/19 11:48:26;;;;;;;7.72;1.20;;;;;;;32.68;23.54;99730.14;1766249;80;21348;-80
2023/07/19 11:51:31;;;;;;;3.05;1.00;;;;;;;32.92;22.64;99725.92;1766677;79;21335;-80
2023/07/19 11:54:38;;;;;;;2.83;0.80;;;;;;;32.94;22.58;99720.77;1754662;81;21302;-80
2023/07/19 11:57:39;;;;;;;5.15;1.20;;;;;;;33.09;22.52;99732.94;1721613;82;21291;-80
2023/07/19 12:00:45;;;;;;;4.90;1.00;;;;;;;32.96;22.56;99726.91;1746510;81;21338;-80
2023/07/19 12:03:52;;;;;;;3.35;0.90;;;;;;;32.86;22.93;99725.25;1748741;81;21204;-80
2023/07/19 12:07:00;;;;;;;2.95;0.98;;;;;;;32.87;22.51;99729.73;1748444;81;21353;-80
2023/07/19 12:13:22;;;;;;;1.62;0.72;;;;;;;32.78;22.50;99717.02;1756854;81;21334;-80
2023/07/19 12:16:28;;;;;;;2.17;1.02;;;;;;;32.96;22.58;99709.91;1755993;81;21374;-80
2023/07/19 12:19:35;;;;;;;4.35;1.07;;;;;;;33.02;22.83;99719.28;1756903;81;21327;-80
2023/07/19 12:22:42;;;;;;;3.42;0.80;;;;;;;32.88;22.75;99723.48;1756045;81;21326;-80
2023/07/19 12:25:49;;;;;;;6.78;0.90;;;;;;;32.79;22.67;99713.05;1754538;81;21301;-80
2023/07/19 12:28:54;;;;;;;2.30;0.90;;;;;;;32.92;22.73;99711.76;1732924;81;21557;-80
2023/07/19 12:32:00;;;;;;;3.80;0.95;;;;;;;33.11;22.41;99712.16;1735157;81;21302;-80
2023/07/19 12:35:05;;;;;;;3.92;1.02;;;;;;;33.27;21.96;99705.34;1750499;81;21359;-80
2023/07/19 12:38:13;;;;;;;5.97;1.10;;;;;;;33.39;22.22;99700.33;1715562;83;21298;-80
2023/07/19 12:41:20;;;;;;;13.83;1.32;;;;;;;33.48;21.87;99712.48;1713702;83;21328;-80
2023/07/19 12:44:27;;;;;;;5.17;1.00;;;;;;;33.37;22.30;99694.19;1699131;84;21307;-80
2023/07/19 12:47:34;;;;;;;6.00;1.10;;;;;;;33.15;22.66;99685.41;1708685;84;21921;-80
2023/07/19 12:50:41;;;;;;;4.40;1.05;;;;;;;33.22;22.53;99706.37;1709783;84;21845;-80
2023/07/19 12:53:49;;;;;;;7.00;1.02;;;;;;;33.19;22.59;99700.55;1708891;84;21331;-80
2023/07/19 12:56:55;;;;;;;3.42;1.17;;;;;;;33.16;22.75;99695.55;1715858;81;21310;-80
2023/07/19 13:00:04;;;;;;;5.83;1.00;;;;;;;33.20;22.69;99699.37;1724566;82;21306;-80
2023/07/19 13:03:03;;;;;;;5.70;0.88;;;;;;;33.12;22.23;99691.73;1694586;83;21355;-80
2023/07/19 13:05:56;;;;;;;1.62;0.75;;;;;;;32.97;22.89;99693.16;1715045;83;21332;-80
2023/07/19 13:09:06;;;;;;;8.63;1.30;;;;;;;33.02;22.56;99688.71;1719670;83;21308;-80
2023/07/19 13:12:14;;;;;;;8.05;0.90;;;;;;;33.14;22.49;99683.75;1726035;82;21334;-80
2023/07/19 13:15:21;;;;;;;9.80;1.22;;;;;;;33.22;22.34;99680.86;1726165;82;21212;-80
2023/07/19 13:18:27;;;;;;;5.55;1.32;;;;;;;33.39;22.38;99684.74;1726708;83;21298;-80
2023/07/19 13:21:34;;;;;;;1.55;0.98;;;;;;;33.30;22.38;99690.47;1709265;84;21363;-80
2023/07/19 13:24:40;;;;;;;2.40;1.17;;;;;;;33.04;22.22;99683.55;1718730;82;21311;-80
2023/07/19 13:27:47;;;;;;;3.25;1.37;;;;;;;33.01;22.53;99675.14;1739124;82;21893;-80
2023/07/19 13:30:54;;;;;;;2.72;1.20;;;;;;;33.04;22.87;99676.47;1732429;82;21330;-80
2023/07/19 13:34:01;;;;;;;6.83;1.30;;;;;;;32.96;22.83;99679.58;1725904;82;21318;-80
2023/07/19 13:37:07;;;;;;;6.95;1.17;;;;;;;33.02;23.06;99681.04;1724356;81;21323;-80
2023/07/19 13:40:14;;;;;;;5.75;1.90;;;;;;;32.88;23.34;99676.76;1733976;81;21850;-80
2023/07/19 13:43:19;;;;;;;3.92;1.20;;;;;;;32.74;22.48;99680.64;1773466;79;21300;-80
2023/07/19 13:46:27;;;;;;;3.50;1.40;;;;;;;32.93;22.59;99676.00;1770869;78;21292;-80
2023/07/19 13:49:33;;;;;;;4.55;1.02;;;;;;;32.95;23.00;99691.27;1763405;79;21617;-80
2023/07/19 13:52:41;;;;;;;4.10;1.10;;;;;;;32.93;22.68;99676.59;1761366;81;21382;-80
2023/07/19 13:55:47;;;;;;;7.62;1.20;;;;;;;32.94;22.48;99683.36;1762365;81;21867;-80
2023/07/19 13:58:53;;;;;;;4.45;1.12;;;;;;;32.94;22.74;99672.62;1762472;81;21590;-80
2023/07/19 14:01:59;;;;;;;8.55;1.52;;;;;;;32.74;22.96;99679.23;1786295;79;21357;-80
2023/07/19 14:05:06;;;;;;;2.80;1.27;;;;;;;32.66;22.75;99673.04;1801434;79;21319;-80
2023/07/19 14:08:12;;;;;;;12.30;1.65;;;;;;;32.58;23.01;99671.06;1783724;78;21288;-80
2023/07/19 14:11:19;;;;;;;17.35;1.60;;;;;;;32.28;23.41;99673.80;1790942;79;21299;-80
2023/07/19 14:14:25;;;;;;;8.10;1.60;;;;;;;32.58;23.06;99669.65;1800882;78;21298;-80
2023/07/19 14:17:33;;;;;;;12.43;1.70;;;;;;;32.51;22.83;99666.50;1792871;80;21315;-80
2023/07/19 14:20:39;;;;;;;4.30;1.27;;;;;;;32.58;22.96;99659.73;1792439;80;21311;-80
2023/07/19 14:23:46;;;;;;;3.67;1.50;;;;;;;32.68;23.51;99664.20;1789507;80;21346;-80
2023/07/19 14:26:53;;;;;;;6.65;1.87;;;;;;;32.80;22.86;99654.41;1791506;80;21587;-80
2023/07/19 14:29:58;;;;;;;5.65;1.40;;;;;;;32.90;22.81;99654.05;1790753;80;21331;-80
2023/07/19 14:33:05;;;;;;;4.20;1.40;;;;;;;32.90;22.82;99661.69;1789784;80;21934;-80
2023/07/19 14:36:12;;;;;;;11.90;1.60;;;;;;;32.93;22.81;99651.93;1792120;80;21299;-80